Time;durP1;ratioP1;P1;durP2;ratioP2;P2;SDS_P1;SDS_P2;PMS_P1;PMS_P2;Temp;Humidity;BMP_temperature;BMP_pressure;BME280_temperature;BME280_humidity;BME280_pressure;Samples;Min_cycle;Max_cycle;Signal;HPM_P1;HPM_P2
2021/05/12 00:01:14;;;;;;;0.52;0.52;;;;;;;10.97;62.28;93199.25;5048098;28;20021;-60
2021/05/12 00:03:40;;;;;;;0.55;0.52;;;;;;;10.99;62.31;93196.66;5049235;28;20025;-60
2021/05/12 00:06:06;;;;;;;1.00;1.00;;;;;;;10.87;62.58;93194.84;5049463;28;20025;-60
2021/05/12 00:08:31;;;;;;;0.63;0.63;;;;;;;10.88;62.06;93188.03;5048870;27;20409;-60
2021/05/12 00:10:57;;;;;;;1.60;1.00;;;;;;;10.80;62.17;93188.06;5049251;28;20044;-60
2021/05/12 00:13:23;;;;;;;1.83;0.90;;;;;;;10.84;62.43;93185.66;5049130;28;20021;-60
2021/05/12 00:15:49;;;;;;;0.77;0.75;;;;;;;10.90;61.97;93190.97;5049324;28;20107;-60
2021/05/12 00:18:20;;;;;;;0.70;0.70;;;;;;;10.92;60.93;93191.88;5049252;28;20617;-60
2021/05/12 00:20:46;;;;;;;0.50;0.50;;;;;;;10.86;61.14;93180.31;5048830;28;20045;-59
2021/05/12 00:23:15;;;;;;;2.22;1.05;;;;;;;10.63;62.41;93188.63;5048888;28;20108;-60
2021/05/12 00:25:41;;;;;;;0.55;0.50;;;;;;;10.65;62.45;93191.56;5049189;28;20057;-60
2021/05/12 00:28:07;;;;;;;0.73;0.73;;;;;;;10.71;62.09;93182.38;5048776;28;20049;-60
2021/05/12 00:30:32;;;;;;;1.05;0.52;;;;;;;10.63;62.74;93177.59;5049156;28;20029;-59
2021/05/12 00:32:58;;;;;;;0.65;0.65;;;;;;;10.48;63.19;93176.91;5049060;28;20093;-60
2021/05/12 00:35:23;;;;;;;0.70;0.70;;;;;;;10.37;64.66;93175.25;5048688;28;20142;-60
2021/05/12 00:37:49;;;;;;;1.58;0.80;;;;;;;10.51;64.47;93171.00;5048929;28;20037;-60
2021/05/12 00:40:16;;;;;;;0.57;0.57;;;;;;;10.32;64.16;93170.66;5048684;28;20028;-60
2021/05/12 00:42:42;;;;;;;0.90;0.75;;;;;;;10.10;64.67;93152.06;5048578;28;20492;-60
2021/05/12 00:45:11;;;;;;;1.30;0.98;;;;;;;9.97;65.23;93154.28;5048757;28;20022;-60
2021/05/12 00:47:36;;;;;;;1.45;0.88;;;;;;;9.89;65.41;93146.75;5048726;28;20029;-60
2021/05/12 00:50:04;;;;;;;1.13;0.80;;;;;;;9.85;65.59;93135.34;5048777;28;20032;-60
2021/05/12 00:52:29;;;;;;;0.55;0.55;;;;;;;9.88;65.64;93136.25;5048754;28;20033;-60
2021/05/12 00:54:55;;;;;;;3.42;0.80;;;;;;;9.94;65.48;93136.81;5048685;28;20518;-60
2021/05/12 00:57:21;;;;;;;1.48;1.23;;;;;;;9.97;65.16;93130.19;5048368;28;20033;-59
2021/05/12 00:59:49;;;;;;;3.28;1.00;;;;;;;10.04;64.58;93118.44;5048206;28;20027;-60
2021/05/12 01:02:15;;;;;;;0.95;0.95;;;;;;;10.07;64.79;93128.34;5048548;28;20024;-59
2021/05/12 01:04:40;;;;;;;0.60;0.60;;;;;;;10.11;65.06;93123.25;5048473;28;20017;-59
2021/05/12 01:07:06;;;;;;;1.13;0.80;;;;;;;10.14;64.57;93129.66;5048168;27;20035;-60
2021/05/12 01:09:32;;;;;;;1.15;0.85;;;;;;;10.25;64.62;93130.03;5048171;28;20467;-60
2021/05/12 01:11:58;;;;;;;0.50;0.50;;;;;;;10.23;63.81;93127.09;5048072;28;20021;-60
2021/05/12 01:14:24;;;;;;;1.05;0.95;;;;;;;10.20;64.16;93124.72;5048067;28;20532;-59
2021/05/12 01:16:50;;;;;;;0.65;0.65;;;;;;;10.26;64.00;93105.94;5048362;28;20036;-59
2021/05/12 01:19:16;;;;;;;5.07;1.05;;;;;;;10.20;63.94;93106.09;5047934;28;20052;-60
2021/05/12 01:21:41;;;;;;;1.38;0.60;;;;;;;9.98;64.40;93095.84;5047990;28;20021;-60
2021/05/12 01:24:08;;;;;;;0.93;0.55;;;;;;;9.77;65.39;93103.56;5047810;28;20117;-60
2021/05/12 01:26:34;;;;;;;0.50;0.50;;;;;;;9.76;65.06;93102.09;5048175;28;20085;-60
2021/05/12 01:29:00;;;;;;;0.63;0.63;;;;;;;9.60;65.78;93100.59;5047934;28;20539;-60
2021/05/12 01:31:34;;;;;;;0.50;0.50;;;;;;;9.67;66.45;93100.63;5047795;28;20028;-60
2021/05/12 01:34:01;;;;;;;0.63;0.63;;;;;;;9.68;65.68;93093.81;5048073;28;20072;-60
2021/05/12 01:36:27;;;;;;;0.60;0.60;;;;;;;9.66;66.29;93093.63;5047811;28;20021;-60
2021/05/12 01:38:53;;;;;;;0.47;0.47;;;;;;;9.72;66.13;93087.94;5048075;28;20496;-60
2021/05/12 01:41:20;;;;;;;0.50;0.50;;;;;;;9.73;65.91;93095.66;5047927;28;20032;-60
2021/05/12 01:43:45;;;;;;;1.40;1.30;;;;;;;9.67;66.05;93086.84;5046697;28;20052;-59
2021/05/12 01:46:12;;;;;;;0.70;0.70;;;;;;;9.71;65.90;93087.19;5047923;28;20478;-59
2021/05/12 01:48:38;;;;;;;1.15;0.98;;;;;;;9.78;65.78;93083.72;5047824;28;20029;-60
2021/05/12 01:51:04;;;;;;;0.55;0.55;;;;;;;9.79;65.65;93084.44;5047944;28;20538;-60
2021/05/12 01:53:30;;;;;;;1.30;0.65;;;;;;;9.77;65.52;93073.97;5047521;28;20119;-60
2021/05/12 01:55:55;;;;;;;0.90;0.68;;;;;;;9.66;65.87;93059.81;5047336;28;20116;-60
2021/05/12 01:58:22;;;;;;;0.65;0.65;;;;;;;9.72;65.39;93087.94;5047776;28;20029;-60
2021/05/12 02:00:50;;;;;;;1.83;1.08;;;;;;;9.15;67.12;93082.75;5047631;28;20035;-60
2021/05/12 02:03:18;;;;;;;0.60;0.60;;;;;;;9.04;68.02;93091.38;5047679;28;20025;-60
2021/05/12 02:05:44;;;;;;;0.43;0.43;;;;;;;8.98;68.52;93090.81;5047607;28;20033;-60
2021/05/12 02:08:12;;;;;;;3.40;1.75;;;;;;;8.99;68.29;93097.03;5047241;27;20029;-60
2021/05/12 02:10:41;;;;;;;0.80;0.60;;;;;;;8.96;68.24;93093.38;5070471;27;20100;-60
2021/05/12 02:13:07;;;;;;;0.50;0.50;;;;;;;8.72;68.44;93099.34;5151920;27;20030;-60
2021/05/12 02:15:33;;;;;;;0.60;0.60;;;;;;;8.75;68.26;93097.53;5151936;27;20033;-60
2021/05/12 02:17:58;;;;;;;4.82;2.28;;;;;;;8.82;67.95;93105.06;5151937;27;20026;-60
2021/05/12 02:20:28;;;;;;;2.80;2.50;;;;;;;8.54;68.55;93108.63;5151381;27;20055;-60
2021/05/12 02:22:54;;;;;;;1.25;1.20;;;;;;;8.23;69.98;93104.22;5152689;27;20431;-60
2021/05/12 02:25:19;;;;;;;0.82;0.73;;;;;;;7.98;71.22;93092.16;5156003;27;20030;-60
2021/05/12 02:27:45;;;;;;;3.80;0.80;;;;;;;7.92;71.91;93088.81;5156128;27;20029;-60
2021/05/12 02:30:11;;;;;;;0.60;0.60;;;;;;;8.04;71.94;93087.97;5156060;27;20033;-60
2021/05/12 02:32:37;;;;;;;1.00;0.70;;;;;;;8.12;71.09;93086.00;5156206;27;20027;-60
2021/05/12 02:35:04;;;;;;;0.95;0.70;;;;;;;8.25;70.81;93076.94;5154769;27;20411;-60
2021/05/12 02:37:30;;;;;;;0.68;0.68;;;;;;;8.41;70.23;93081.22;5155936;27;20026;-60
2021/05/12 02:39:55;;;;;;;1.00;0.95;;;;;;;8.39;69.89;93081.03;5156193;27;20033;-60
2021/05/12 02:42:21;;;;;;;0.65;0.52;;;;;;;8.40;69.37;93061.22;5156179;27;20380;-60
2021/05/12 02:44:46;;;;;;;1.30;0.68;;;;;;;8.54;69.54;93072.84;5155994;27;20019;-60
2021/05/12 02:47:12;;;;;;;0.90;0.90;;;;;;;8.55;69.23;93081.84;5156087;27;20027;-60
2021/05/12 02:49:39;;;;;;;1.27;0.80;;;;;;;8.66;68.71;93074.00;5156006;27;20022;-60
2021/05/12 02:52:05;;;;;;;2.55;1.92;;;;;;;8.71;68.09;93072.34;5124139;27;20425;-60
2021/05/12 02:54:30;;;;;;;2.60;2.08;;;;;;;8.71;67.95;93075.09;5050225;28;20028;-60
2021/05/12 02:56:56;;;;;;;1.30;1.20;;;;;;;8.54;67.61;93069.34;5050165;28;20032;-60
2021/05/12 02:59:21;;;;;;;1.65;1.25;;;;;;;8.07;68.25;93075.91;5050168;28;20077;-60
2021/05/12 03:01:47;;;;;;;2.30;1.23;;;;;;;7.91;68.88;93071.59;5050126;28;20036;-60
2021/05/12 03:04:12;;;;;;;0.70;0.60;;;;;;;8.20;68.24;93075.06;5050059;28;20037;-60
2021/05/12 03:06:38;;;;;;;1.50;1.40;;;;;;;8.21;68.33;93084.75;5049733;27;20033;-60
2021/05/12 03:09:05;;;;;;;1.20;1.10;;;;;;;8.05;69.54;93072.22;5050044;28;20025;-60
2021/05/12 03:11:30;;;;;;;1.27;0.85;;;;;;;7.87;70.10;93067.72;5049936;28;20029;-60
2021/05/12 03:13:56;;;;;;;1.52;0.95;;;;;;;7.85;69.93;93067.50;5050231;28;20394;-60
2021/05/12 03:16:21;;;;;;;1.00;0.90;;;;;;;7.91;69.81;93065.34;5050246;28;20017;-60
2021/05/12 03:18:47;;;;;;;1.50;1.40;;;;;;;7.88;69.95;93058.94;5049597;28;20512;-59
2021/05/12 03:21:12;;;;;;;0.90;0.90;;;;;;;7.80;69.69;93068.38;5050160;28;20029;-60
2021/05/12 03:23:38;;;;;;;1.58;1.35;;;;;;;7.82;69.89;93063.13;5049741;28;20412;-60
2021/05/12 03:26:04;;;;;;;0.98;0.82;;;;;;;7.79;69.86;93070.44;5050109;28;20465;-60
2021/05/12 03:28:30;;;;;;;1.60;1.50;;;;;;;7.94;69.20;93067.03;5049686;28;20036;-60
2021/05/12 03:30:55;;;;;;;2.15;1.40;;;;;;;7.87;68.62;93070.47;5049697;28;20027;-60
2021/05/12 03:33:21;;;;;;;1.27;1.17;;;;;;;8.03;68.88;93058.28;5049922;28;20104;-60
2021/05/12 03:35:46;;;;;;;1.15;1.00;;;;;;;8.00;68.95;93057.34;5048457;28;20687;-60
2021/05/12 03:38:12;;;;;;;1.95;0.93;;;;;;;7.99;69.09;93055.16;5049854;28;20511;-60
2021/05/12 03:40:40;;;;;;;1.25;0.88;;;;;;;8.06;69.56;93059.94;5049852;28;20029;-60
2021/05/12 03:43:05;;;;;;;1.08;0.98;;;;;;;7.83;69.75;93056.31;5049855;28;20025;-60
2021/05/12 03:45:31;;;;;;;1.27;1.17;;;;;;;7.64;70.00;93045.59;5049674;28;20029;-60
2021/05/12 03:47:57;;;;;;;0.90;0.90;;;;;;;7.59;70.11;93036.22;5049638;28;20049;-60
2021/05/12 03:50:26;;;;;;;2.17;1.23;;;;;;;7.86;69.89;93041.50;5049356;28;20037;-60
2021/05/12 03:52:51;;;;;;;0.93;0.93;;;;;;;7.93;68.42;93024.31;5049681;28;20043;-60
2021/05/12 03:55:17;;;;;;;2.40;1.48;;;;;;;8.05;68.18;93020.72;5049283;28;20029;-60
2021/05/12 03:57:43;;;;;;;1.85;1.67;;;;;;;8.26;68.51;93031.66;5049577;28;20025;-60
2021/05/12 04:00:09;;;;;;;1.80;1.70;;;;;;;8.13;68.87;93034.50;5048362;28;20104;-60
2021/05/12 04:02:35;;;;;;;1.70;1.60;;;;;;;8.27;69.05;93028.34;5048889;28;20651;-60
2021/05/12 04:05:00;;;;;;;1.00;1.00;;;;;;;8.34;69.38;93019.41;5049112;28;20047;-60
2021/05/12 04:07:27;;;;;;;1.73;1.63;;;;;;;8.43;69.22;93015.41;5048794;27;20038;-60
2021/05/12 04:09:53;;;;;;;1.05;1.00;;;;;;;8.51;68.52;93013.41;5049457;28;20033;-60
2021/05/12 04:12:19;;;;;;;1.95;1.45;;;;;;;8.77;67.29;93021.34;5049027;28;20081;-60
2021/05/12 04:14:44;;;;;;;23.70;11.95;;;;;;;8.84;67.52;93023.41;5049379;28;20098;-60
2021/05/12 04:17:09;;;;;;;3.45;2.10;;;;;;;8.76;68.21;93024.66;5049205;28;20462;-60
2021/05/12 04:19:35;;;;;;;1.80;1.42;;;;;;;9.10;67.50;93019.56;5048796;28;20097;-60
2021/05/12 04:22:00;;;;;;;1.48;1.38;;;;;;;9.34;66.00;93012.78;5048964;28;20092;-60
2021/05/12 04:24:26;;;;;;;2.20;1.48;;;;;;;9.51;65.70;93021.22;5049197;28;20087;-60
2021/05/12 04:26:52;;;;;;;5.28;3.42;;;;;;;9.73;65.26;93018.47;5048794;28;20509;-60
2021/05/12 04:29:17;;;;;;;3.70;1.95;;;;;;;10.23;64.38;93018.75;5049126;28;20036;-60
2021/05/12 04:31:43;;;;;;;5.50;2.53;;;;;;;10.59;63.03;93030.19;5049110;28;20405;-60
2021/05/12 04:34:08;;;;;;;2.55;2.30;;;;;;;10.87;62.58;93023.63;5049040;28;20028;-60
2021/05/12 04:36:34;;;;;;;4.30;2.03;;;;;;;11.11;61.40;93028.47;5049057;28;20082;-60
2021/05/12 04:38:59;;;;;;;4.03;2.13;;;;;;;11.19;60.75;93020.84;5048951;28;20056;-60
2021/05/12 04:41:25;;;;;;;1.80;1.38;;;;;;;11.40;60.92;93021.25;5048673;28;20039;-59
2021/05/12 04:43:50;;;;;;;7.10;1.27;;;;;;;11.20;62.11;93025.06;5048528;28;20036;-60
2021/05/12 04:46:16;;;;;;;0.88;0.88;;;;;;;10.87;63.87;93018.81;5047837;28;20085;-59
2021/05/12 04:48:41;;;;;;;0.70;0.70;;;;;;;11.24;63.98;93017.13;5048535;28;20049;-59
2021/05/12 04:51:07;;;;;;;1.27;0.90;;;;;;;11.31;62.83;93016.31;5048006;28;20031;-59
2021/05/12 04:53:32;;;;;;;0.90;0.73;;;;;;;11.74;62.85;93015.81;5047615;28;20060;-59
2021/05/12 04:55:58;;;;;;;0.82;0.70;;;;;;;12.03;61.80;93005.78;5048366;28;20035;-59
2021/05/12 04:58:23;;;;;;;0.95;0.93;;;;;;;11.95;61.19;92998.84;5048362;28;20029;-59
2021/05/12 05:00:49;;;;;;;1.42;1.33;;;;;;;12.06;60.52;92993.56;5048340;28;20028;-59
2021/05/12 05:03:14;;;;;;;1.05;0.73;;;;;;;12.16;60.75;92996.41;5048602;28;20027;-59
2021/05/12 05:05:40;;;;;;;1.52;1.42;;;;;;;12.32;60.41;93003.25;5048425;28;20025;-59
2021/05/12 05:08:05;;;;;;;1.35;0.88;;;;;;;12.46;60.68;92998.09;5047900;27;20024;-59
2021/05/12 05:10:31;;;;;;;1.52;1.17;;;;;;;12.56;59.08;92985.78;5047964;28;20048;-59
2021/05/12 05:12:56;;;;;;;1.58;1.13;;;;;;;12.59;58.83;92987.41;5048493;28;20052;-59
2021/05/12 05:15:23;;;;;;;1.70;1.60;;;;;;;12.28;59.88;92980.06;5048038;28;20468;-59
2021/05/12 05:17:49;;;;;;;0.90;0.90;;;;;;;12.18;60.55;92975.16;5048355;28;20029;-59
2021/05/12 05:20:15;;;;;;;1.02;0.90;;;;;;;12.42;60.04;92972.88;5047828;28;20564;-59
2021/05/12 05:22:40;;;;;;;7.10;1.13;;;;;;;12.88;59.08;92955.09;5048199;28;20028;-59
2021/05/12 05:25:06;;;;;;;1.48;1.08;;;;;;;13.50;58.14;92961.91;5047955;28;20036;-59
2021/05/12 05:27:32;;;;;;;1.65;0.80;;;;;;;14.14;56.07;92956.91;5048138;28;20025;-59
2021/05/12 05:29:58;;;;;;;0.80;0.80;;;;;;;14.70;53.23;92961.00;5047916;28;20412;-59
2021/05/12 05:32:23;;;;;;;1.08;0.98;;;;;;;14.88;51.66;92955.97;5048067;28;20036;-59
2021/05/12 05:34:49;;;;;;;1.70;1.60;;;;;;;15.18;52.00;92958.81;5047731;28;20404;-59
2021/05/12 05:37:15;;;;;;;3.42;1.50;;;;;;;15.63;49.65;92950.75;5048426;28;20025;-59
2021/05/12 05:39:41;;;;;;;2.00;1.00;;;;;;;15.83;49.97;92940.97;5047737;28;20037;-59
2021/05/12 05:42:08;;;;;;;1.75;0.90;;;;;;;15.95;49.15;92939.00;5047302;28;20036;-59
2021/05/12 05:44:34;;;;;;;2.20;1.50;;;;;;;16.21;48.72;92951.13;5047898;28;20025;-59
2021/05/12 05:47:00;;;;;;;1.35;0.65;;;;;;;16.24;47.31;92947.84;5047620;28;20029;-59
2021/05/12 05:49:26;;;;;;;1.13;0.80;;;;;;;15.96;47.73;92940.44;5047962;28;20059;-59
2021/05/12 05:51:52;;;;;;;1.30;1.00;;;;;;;16.16;47.86;92954.94;5047821;28;20056;-59
2021/05/12 05:54:18;;;;;;;1.60;0.98;;;;;;;16.15;47.18;92956.28;5047846;28;20046;-59
2021/05/12 05:56:44;;;;;;;1.27;1.17;;;;;;;15.30;49.11;92947.06;5047818;28;20031;-60
2021/05/12 05:59:09;;;;;;;1.55;1.00;;;;;;;15.63;51.24;92951.50;5046669;28;20116;-59
2021/05/12 06:01:35;;;;;;;1.83;1.45;;;;;;;15.77;50.29;92952.44;5047822;28;20047;-59
2021/05/12 06:04:00;;;;;;;2.75;1.13;;;;;;;15.84;49.71;92948.00;5047545;28;20030;-59
2021/05/12 06:06:26;;;;;;;1.30;1.20;;;;;;;15.87;49.67;92941.94;5047389;27;20025;-60
2021/05/12 06:08:53;;;;;;;7.43;1.10;;;;;;;15.90;50.61;92943.56;5047580;28;20024;-59
2021/05/12 06:11:18;;;;;;;0.80;0.73;;;;;;;16.05;49.91;92938.94;5047538;28;20104;-59
2021/05/12 06:13:44;;;;;;;0.98;0.85;;;;;;;15.97;50.45;92936.34;5047612;28;20549;-59
2021/05/12 06:16:10;;;;;;;3.15;0.95;;;;;;;16.01;48.98;92933.81;5047256;28;20489;-59
2021/05/12 06:18:35;;;;;;;0.60;0.60;;;;;;;16.20;47.53;92933.66;5047307;28;20025;-59
2021/05/12 06:21:00;;;;;;;1.20;0.88;;;;;;;15.94;49.62;92929.16;5046965;28;20061;-60
2021/05/12 06:23:26;;;;;;;0.85;0.85;;;;;;;16.26;50.34;92925.00;5047465;28;20520;-59
2021/05/12 06:25:52;;;;;;;2.28;1.05;;;;;;;16.74;49.03;92913.44;5047330;28;20489;-60
2021/05/12 06:28:19;;;;;;;1.08;0.90;;;;;;;17.31;48.62;92933.06;5047426;28;20035;-60
2021/05/12 06:30:49;;;;;;;0.70;0.70;;;;;;;17.73;47.74;92914.63;5046708;28;20027;-60
2021/05/12 06:33:14;;;;;;;15.48;1.15;;;;;;;18.23;44.90;92920.38;5047571;28;20032;-60
2021/05/12 06:35:40;;;;;;;14.18;1.48;;;;;;;18.61;43.47;92908.56;5047246;28;20432;-60
2021/05/12 06:38:05;;;;;;;1.42;0.90;;;;;;;19.01;39.00;92898.88;5046887;28;20032;-60
2021/05/12 06:40:31;;;;;;;0.70;0.50;;;;;;;19.03;37.42;92887.81;5046880;28;20029;-60
2021/05/12 06:43:00;;;;;;;0.75;0.47;;;;;;;19.19;38.68;92894.25;5046932;28;20028;-59
2021/05/12 06:45:25;;;;;;;1.15;0.60;;;;;;;19.51;38.23;92870.06;5046803;28;20025;-59
2021/05/12 06:47:54;;;;;;;0.77;0.75;;;;;;;19.39;38.75;92889.75;5047065;28;20029;-59
2021/05/12 06:50:20;;;;;;;0.43;0.43;;;;;;;19.16;38.09;92883.59;5046825;28;20504;-59
2021/05/12 06:52:54;;;;;;;1.40;1.02;;;;;;;18.93;38.55;92884.44;5047118;28;20025;-59
2021/05/12 06:55:20;;;;;;;1.02;0.60;;;;;;;19.00;38.85;92879.91;5047095;28;20024;-59
2021/05/12 06:57:45;;;;;;;1.35;0.63;;;;;;;19.37;38.96;92875.66;5046754;28;20025;-59
2021/05/12 07:00:11;;;;;;;0.75;0.52;;;;;;;19.80;37.47;92869.44;5046684;28;20025;-59
2021/05/12 07:02:36;;;;;;;0.77;0.75;;;;;;;20.58;35.30;92856.53;5047037;28;20021;-59
2021/05/12 07:05:02;;;;;;;1.17;0.70;;;;;;;21.29;35.09;92854.22;5046525;28;20078;-58
2021/05/12 07:07:27;;;;;;;0.60;0.60;;;;;;;21.09;33.43;92862.47;5046283;27;20049;-59
2021/05/12 07:09:53;;;;;;;0.75;0.75;;;;;;;20.72;34.23;92864.88;5048294;28;20029;-60
2021/05/12 07:12:18;;;;;;;2.38;0.52;;;;;;;21.08;34.38;92872.22;5050238;28;20021;-59
2021/05/12 07:14:44;;;;;;;0.38;0.38;;;;;;;21.58;33.56;92868.88;5050345;28;20017;-59
2021/05/12 07:17:09;;;;;;;0.80;0.80;;;;;;;22.46;31.89;92852.28;5050246;28;20036;-59
2021/05/12 07:19:34;;;;;;;0.52;0.52;;;;;;;23.32;30.52;92854.94;5049980;28;20432;-59
2021/05/12 07:22:00;;;;;;;0.40;0.40;;;;;;;24.29;27.76;92843.66;5049704;28;20430;-60
2021/05/12 07:24:25;;;;;;;0.30;0.30;;;;;;;25.31;28.62;92838.50;5049845;28;20064;-59
2021/05/12 07:26:51;;;;;;;1.13;0.47;;;;;;;26.13;26.85;92834.50;5049826;28;20032;-60
2021/05/12 07:29:16;;;;;;;0.50;0.50;;;;;;;27.27;24.40;92843.66;5050093;28;20036;-60
2021/05/12 07:31:42;;;;;;;1.02;0.45;;;;;;;28.02;23.37;92855.28;5049787;28;20031;-59
2021/05/12 07:34:10;;;;;;;0.73;0.40;;;;;;;27.72;23.62;92851.78;5049993;28;20041;-59
2021/05/12 07:36:37;;;;;;;0.40;0.40;;;;;;;28.48;22.48;92849.72;5049770;28;20029;-59
2021/05/12 07:39:06;;;;;;;1.52;0.90;;;;;;;29.35;21.35;92848.38;5049584;28;20068;-59
2021/05/12 07:41:32;;;;;;;0.40;0.40;;;;;;;28.43;22.09;92846.13;5049817;28;20039;-59
2021/05/12 07:43:57;;;;;;;0.47;0.30;;;;;;;28.43;22.07;92848.97;5049873;28;20417;-59
2021/05/12 07:46:23;;;;;;;0.40;0.38;;;;;;;28.33;21.85;92854.44;5049761;28;20059;-59
2021/05/12 07:48:48;;;;;;;0.55;0.40;;;;;;;29.01;21.51;92852.13;5049769;28;20417;-59
2021/05/12 07:51:13;;;;;;;1.75;0.40;;;;;;;28.56;22.72;92852.75;5049717;28;20025;-59
2021/05/12 07:53:39;;;;;;;0.30;0.30;;;;;;;28.72;22.01;92850.19;5049394;28;20485;-59
2021/05/12 07:56:04;;;;;;;0.55;0.45;;;;;;;28.46;21.35;92844.75;5049665;28;20036;-59
2021/05/12 07:58:30;;;;;;;2.30;0.55;;;;;;;29.11;20.89;92845.84;5049277;28;20526;-59
2021/05/12 08:01:02;;;;;;;0.63;0.60;;;;;;;28.96;22.30;92847.03;5049330;28;20025;-59
2021/05/12 08:03:27;;;;;;;1.20;0.73;;;;;;;28.89;21.10;92834.16;5049650;28;20078;-60
2021/05/12 08:05:52;;;;;;;0.73;0.40;;;;;;;28.91;20.98;92825.66;5049390;28;20029;-59
2021/05/12 08:08:18;;;;;;;0.32;0.32;;;;;;;29.20;20.77;92831.09;5049175;27;20033;-60
2021/05/12 08:10:43;;;;;;;0.30;0.30;;;;;;;29.25;21.27;92831.88;5076000;27;20022;-59
2021/05/12 08:13:09;;;;;;;1.13;0.40;;;;;;;29.25;21.48;92831.88;5154476;27;20058;-60
2021/05/12 08:15:34;;;;;;;0.77;0.50;;;;;;;29.23;20.74;92841.13;5154430;27;20383;-60
2021/05/12 08:18:00;;;;;;;1.75;0.45;;;;;;;29.93;20.03;92824.28;5153241;27;20575;-60
2021/05/12 08:20:25;;;;;;;0.40;0.40;;;;;;;29.96;20.61;92811.53;5153284;27;20047;-60
2021/05/12 08:22:51;;;;;;;0.30;0.30;;;;;;;30.44;20.02;92814.22;5153962;27;20034;-59
2021/05/12 08:25:17;;;;;;;0.30;0.30;;;;;;;30.72;19.71;92799.50;5153931;27;20029;-60
2021/05/12 08:27:42;;;;;;;0.50;0.40;;;;;;;30.84;19.78;92793.22;5153835;27;20037;-60
2021/05/12 08:30:11;;;;;;;2.67;0.50;;;;;;;31.58;19.85;92784.50;5154166;27;20018;-60
2021/05/12 08:32:36;;;;;;;0.28;0.28;;;;;;;31.92;20.55;92782.50;5153862;27;20681;-60
2021/05/12 08:35:02;;;;;;;0.30;0.30;;;;;;;32.62;19.47;92773.44;5049055;28;20036;-60
2021/05/12 08:37:27;;;;;;;0.90;0.68;;;;;;;31.73;20.00;92778.13;5048805;28;20043;-60
2021/05/12 08:39:53;;;;;;;6.00;1.10;;;;;;;30.66;20.71;92768.13;5048949;28;20033;-60
2021/05/12 08:42:18;;;;;;;0.93;0.70;;;;;;;30.29;20.43;92764.19;5048928;28;20085;-60
2021/05/12 08:44:46;;;;;;;0.63;0.50;;;;;;;30.42;20.47;92768.63;5048828;28;20021;-60
2021/05/12 08:47:15;;;;;;;0.38;0.38;;;;;;;31.32;21.23;92768.63;5048541;28;20033;-59
2021/05/12 08:49:41;;;;;;;0.45;0.45;;;;;;;31.83;19.37;92755.34;5048645;28;20035;-59
2021/05/12 08:52:06;;;;;;;0.50;0.50;;;;;;;32.21;18.84;92765.47;5048855;28;20633;-59
2021/05/12 08:54:33;;;;;;;0.38;0.38;;;;;;;32.88;18.07;92773.47;5048412;28;20101;-60
2021/05/12 08:56:58;;;;;;;0.98;0.80;;;;;;;32.69;17.47;92769.16;5048758;28;20029;-60
2021/05/12 08:59:24;;;;;;;0.70;0.68;;;;;;;31.63;18.84;92772.38;5047157;28;20102;-60
2021/05/12 09:01:49;;;;;;;0.75;0.38;;;;;;;32.08;18.10;92776.88;5046847;28;20025;-59
2021/05/12 09:04:15;;;;;;;0.25;0.20;;;;;;;31.77;18.33;92766.72;5048233;28;20029;-60
2021/05/12 09:06:40;;;;;;;0.30;0.28;;;;;;;31.19;19.14;92777.78;5043396;27;20049;-60
2021/05/12 09:09:09;;;;;;;0.63;0.40;;;;;;;31.95;20.39;92774.69;5010841;28;20078;-60
2021/05/12 09:11:34;;;;;;;;;;;;;;;31.76;19.30;92771.03;5104945;27;20022;-60
2021/05/12 09:14:01;;;;;;;0.50;0.40;;;;;;;32.29;18.17;92771.22;5153288;27;20344;-59
2021/05/12 09:16:28;;;;;;;0.38;0.20;;;;;;;32.42;18.80;92766.97;5152887;27;20105;-60
2021/05/12 09:19:04;;;;;;;0.47;0.47;;;;;;;32.32;18.42;92773.38;5152885;27;20034;-60
2021/05/12 09:21:56;;;;;;;0.98;0.38;;;;;;;32.92;17.94;92766.31;5152888;27;20507;-61
2021/05/12 09:24:35;;;;;;;0.57;0.47;;;;;;;32.40;18.54;92764.81;5152677;27;20518;-60
2021/05/12 09:27:02;;;;;;;0.40;0.30;;;;;;;31.88;18.40;92778.94;5153098;27;20452;-60
2021/05/12 09:29:38;;;;;;;0.40;0.30;;;;;;;32.16;19.02;92770.47;5126156;27;20029;-60
2021/05/12 09:32:10;;;;;;;0.35;0.20;;;;;;;32.73;17.98;92772.03;5048043;28;20029;-60
2021/05/12 09:35:00;;;;;;;0.88;0.50;;;;;;;31.86;18.95;92767.50;5046713;28;20017;-60
2021/05/12 09:37:33;;;;;;;0.40;0.38;;;;;;;31.63;18.78;92763.09;5048163;28;20086;-59
2021/05/12 09:40:03;;;;;;;0.55;0.50;;;;;;;31.09;19.60;92769.91;5047823;28;20025;-61
2021/05/12 09:42:28;;;;;;;1.08;0.63;;;;;;;31.97;18.88;92763.97;5048049;28;20071;-60
2021/05/12 09:45:17;;;;;;;0.57;0.55;;;;;;;31.89;18.98;92761.09;5047950;28;20513;-60
2021/05/12 09:47:43;;;;;;;;;;;;;;;31.55;18.42;92754.50;5048548;28;20032;-59
2021/05/12 09:50:26;;;;;;;0.32;0.32;;;;;;;30.68;20.56;92753.88;5047993;28;20045;-60
2021/05/12 09:52:57;;;;;;;0.50;0.50;;;;;;;30.92;18.91;92759.09;5047629;28;20056;-60
2021/05/12 09:55:36;;;;;;;0.50;0.30;;;;;;;30.97;20.34;92758.41;5047531;28;20025;-59
2021/05/12 09:58:18;;;;;;;0.30;0.28;;;;;;;31.19;19.20;92761.41;5047579;28;20025;-59
2021/05/12 10:00:45;;;;;;;0.30;0.30;;;;;;;32.17;18.87;92755.47;5047506;28;20089;-60
2021/05/12 10:03:12;;;;;;;0.40;0.40;;;;;;;31.54;19.00;92753.06;5047737;28;20466;-59
2021/05/12 10:05:58;;;;;;;0.70;0.70;;;;;;;31.97;17.81;92751.84;5047597;28;20383;-60
2021/05/12 10:08:31;;;;;;;0.57;0.57;;;;;;;32.80;17.38;92747.72;5046994;27;20108;-60
2021/05/12 10:11:01;;;;;;;0.40;0.40;;;;;;;32.63;17.26;92746.28;5083738;27;20058;-60
2021/05/12 10:13:28;;;;;;;0.20;0.20;;;;;;;32.66;16.91;92750.56;5152408;27;20031;-60
2021/05/12 10:15:53;;;;;;;0.60;0.60;;;;;;;32.15;18.02;92740.47;5151989;27;20105;-63
2021/05/12 10:18:19;;;;;;;0.40;0.35;;;;;;;32.22;17.36;92739.06;5151922;27;20034;-62
2021/05/12 10:20:44;;;;;;;0.45;0.45;;;;;;;31.34;18.13;92733.69;5151795;27;20035;-64
2021/05/12 10:23:10;;;;;;;0.43;0.43;;;;;;;30.94;18.81;92737.00;5151894;27;20155;-60
2021/05/12 10:25:36;;;;;;;4.05;1.20;;;;;;;31.35;19.53;92733.00;5130652;27;20108;-61
2021/05/12 10:28:02;;;;;;;1.58;0.73;;;;;;;30.25;20.41;92732.13;5047195;28;20640;-61
2021/05/12 10:30:28;;;;;;;0.50;0.50;;;;;;;30.02;21.22;92728.31;5047053;28;20066;-60
2021/05/12 10:32:56;;;;;;;0.25;0.25;;;;;;;29.69;20.83;92730.06;5047346;28;20114;-60
2021/05/12 10:35:48;;;;;;;0.60;0.50;;;;;;;29.22;21.29;92730.91;5047033;28;20025;-59
2021/05/12 10:38:32;;;;;;;1.10;0.60;;;;;;;28.63;22.48;92734.97;5042999;28;20093;-60
2021/05/12 10:40:58;;;;;;;0.30;0.30;;;;;;;28.02;23.76;92736.09;5046981;28;20024;-59
2021/05/12 10:43:35;;;;;;;0.82;0.50;;;;;;;27.74;23.74;92730.56;5047143;28;20508;-60
2021/05/12 10:48:47;;;;;;;0.38;0.38;;;;;;;28.37;23.34;92721.06;5050806;28;20025;-60
2021/05/12 10:51:27;;;;;;;0.40;0.40;;;;;;;28.79;22.85;92723.16;5050363;28;20032;-60
2021/05/12 10:53:54;;;;;;;2.38;0.60;;;;;;;29.30;22.15;92713.25;5050372;28;20040;-59
2021/05/12 10:56:24;;;;;;;1.02;0.80;;;;;;;28.61;22.43;92711.53;5050616;28;20077;-60
2021/05/12 10:58:59;;;;;;;0.98;0.60;;;;;;;28.45;23.47;92721.22;5049120;28;20517;-59
2021/05/12 11:01:27;;;;;;;1.27;0.68;;;;;;;28.23;23.72;92711.59;5050267;28;20029;-60
2021/05/12 11:03:52;;;;;;;0.57;0.57;;;;;;;27.98;24.79;92718.97;5050164;28;20028;-60
2021/05/12 11:06:22;;;;;;;0.50;0.50;;;;;;;27.42;24.58;92721.44;5050138;27;20120;-59
2021/05/12 11:09:07;;;;;;;0.93;0.60;;;;;;;26.54;25.43;92713.78;5050481;28;20458;-59
2021/05/12 11:11:49;;;;;;;0.65;0.50;;;;;;;26.06;26.62;92713.31;5113032;27;20083;-59
2021/05/12 11:14:22;;;;;;;6.32;1.00;;;;;;;25.83;26.42;92720.53;5155633;27;20095;-60
2021/05/12 11:17:06;;;;;;;0.57;0.43;;;;;;;24.91;28.10;92724.28;5155667;27;20034;-59
2021/05/12 11:20:03;;;;;;;0.95;0.70;;;;;;;24.66;28.91;92724.91;5155223;27;20095;-60
2021/05/12 11:33:22;;;;;;;1.00;0.88;;;;;;;23.89;30.62;92708.34;5050296;28;20067;-59
2021/05/12 11:35:51;;;;;;;1.00;0.70;;;;;;;23.92;30.62;92721.13;5050081;28;20025;-59
2021/05/12 11:38:17;;;;;;;0.60;0.60;;;;;;;23.85;30.84;92721.56;5049946;28;20467;-59
2021/05/12 11:41:01;;;;;;;0.95;0.70;;;;;;;23.75;31.13;92716.34;5049902;28;20082;-59
2021/05/12 11:43:41;;;;;;;0.77;0.65;;;;;;;23.79;30.78;92710.09;5049532;28;20097;-59
2021/05/12 11:46:10;;;;;;;0.57;0.55;;;;;;;23.82;30.85;92706.69;5049559;28;20031;-59
2021/05/12 11:48:49;;;;;;;5.32;0.90;;;;;;;24.04;30.81;92698.22;5049777;28;20029;-59
2021/05/12 11:51:16;;;;;;;;;;;;;;;24.42;30.60;92698.75;5050336;28;20037;-59